Date,TemperatureHighF,TemperatureAvgF,TemperatureLowF,DewpointHighF,DewpointAvgF,DewpointLowF,HumidityHigh,HumidityAvg,HumidityLow,PressureMaxIn,PressureMinIn,WindSpeedMaxMPH,WindSpeedAvgMPH,GustSpeedMaxMPH,PrecipitationSumIn
2013-1-1,86.7,70.5,57.4,67.8,59.6,56.3,99,72,42,30.07,29.92,11,2,17,0.00
2013-1-2,89.1,72.0,57.4,72.3,62.0,57.1,99,75,37,29.97,29.85,7,1,12,0.00
2013-1-3,71.1,71.1,71.1,64.6,64.6,64.6,80,80,80,29.89,29.89,2,2,4,0.00
2013-1-4,71.1,71.1,71.1,64.6,64.6,64.6,80,80,80,29.89,29.89,2,2,4,0.00
2013-1-5,71.1,71.1,71.1,64.6,64.6,64.6,80,80,80,29.89,29.89,2,2,4,0.00
2013-1-6,71.1,71.1,71.1,64.6,64.6,64.6,80,80,80,29.89,29.89,2,2,4,0.00
2013-1-7,71.1,71.1,71.1,64.6,64.6,64.6,80,80,80,29.89,29.89,2,2,4,0.00
2013-1-8,87.6,71.5,71.1,78.3,65.4,64.6,91,81,74,30.42,29.89,4,2,8,0.24
2013-1-9,89.1,77.4,70.9,73.4,70.8,68.6,99,81,56,30.03,29.91,11,3,18,0.04
2013-1-10,84.7,75.1,67.5,73.7,67.0,60.8,97,77,49,30.05,29.93,12,2,20,0.00
2013-1-11,86.4,74.7,69.3,74.3,68.4,65.0,95,82,60,30.01,29.90,8,1,14,0.14
2013-1-12,72.9,70.8,66.7,66.2,65.4,64.5,94,83,77,29.93,29.88,2,0,6,0.00
2013-1-13,90.3,74.9,64.6,69.2,64.9,61.0,97,73,45,29.89,29.83,6,2,12,0.00
2013-1-14,88.5,73.0,62.6,72.0,64.1,60.7,99,76,45,29.92,29.86,8,2,16,0.00
2013-1-15,83.8,71.1,62.2,71.8,65.9,61.0,99,84,57,29.89,29.80,4,1,10,0.00
2013-1-16,90.1,73.1,59.2,74.7,65.3,58.9,99,80,45,29.87,29.76,7,2,12,0.01
2013-1-17,88.0,70.3,60.8,73.5,62.7,52.6,99,78,52,29.84,29.70,8,3,16,0.00
2013-1-18,74.5,62.7,50.5,56.7,51.4,44.8,83,67,51,30.00,29.84,8,3,14,0.00
2013-1-19,75.7,67.0,57.6,68.8,63.7,54.4,99,89,73,29.98,29.85,4,1,8,0.09
2013-1-20,83.1,70.6,61.7,72.6,65.8,61.4,99,86,54,29.89,29.76,8,1,14,0.01
2013-1-21,88.2,72.4,64.0,75.4,66.8,63.6,99,84,50,29.83,29.71,5,1,10,0.00
2013-1-22,77.9,67.7,61.5,64.0,57.0,50.1,99,71,50,29.98,29.76,10,3,17,0.00
2013-1-23,77.0,65.0,58.1,58.3,53.9,50.7,82,69,41,30.07,29.96,9,2,15,0.00
2013-1-24,79.3,65.1,54.0,53.6,48.3,34.9,92,59,25,30.07,29.95,8,2,16,0.02
2013-1-25,86.0,64.6,54.5,57.6,53.8,48.4,96,72,35,30.06,29.93,5,1,11,0.00
2013-1-26,86.4,65.9,1.2,57.7,53.6,0.7,99,70,28,30.03,29.90,4,1,8,0.00
2013-1-27,82.4,67.4,54.1,62.7,56.5,38.4,99,72,38,30.05,29.96,8,1,15,0.38
2013-1-28,86.7,74.3,63.1,67.9,63.2,59.7,93,70,43,30.07,29.97,9,2,17,0.00
2013-1-29,86.7,74.1,65.8,74.8,67.7,64.1,97,81,54,29.99,29.87,9,2,17,0.02
2013-1-30,86.4,74.0,63.3,67.7,64.3,61.0,96,74,49,29.87,29.71,14,3,22,0.00
2013-1-31,70.0,64.7,53.6,69.5,55.8,36.3,99,75,46,29.95,29.69,9,2,17,0.00
2013-2-1,73.9,60.3,50.2,53.2,44.1,32.5,68,55,45,30.05,29.93,9,3,17,0.00
2013-2-2,83.3,62.3,51.8,51.8,44.0,32.3,95,54,26,30.03,29.88,7,1,11,0.00
2013-2-3,77.0,61.2,50.0,53.3,43.7,17.7,99,62,12,29.94,29.82,8,1,12,0.00
2013-2-4,80.1,62.0,44.8,52.7,43.6,-6.5,91,60,10,29.91,29.78,8,1,14,0.00
2013-2-5,88.0,67.4,48.9,64.3,53.3,41.7,99,68,21,29.85,29.75,6,1,11,0.00
2013-2-6,89.8,70.3,56.8,70.7,60.9,56.6,99,75,40,29.87,29.77,5,1,10,0.00
2013-2-7,90.1,73.3,59.0,70.7,62.3,10.7,99,72,10,29.84,29.68,8,2,12,0.00
2013-2-8,87.1,72.8,63.0,71.0,64.6,54.9,99,78,39,29.79,29.65,6,2,53,0.00
2013-2-9,81.9,70.6,61.5,67.7,62.1,58.9,99,77,48,29.93,29.77,11,2,20,0.00
2013-2-10,79.5,72.0,65.8,65.2,60.8,57.5,91,69,49,30.02,29.90,8,2,16,0.00
2013-2-11,87.4,72.3,60.3,70.2,61.9,58.5,97,73,42,29.97,29.86,9,2,16,0.00
2013-2-12,93.4,74.3,59.4,73.6,64.2,57.3,99,76,32,29.88,29.71,8,2,16,0.00
2013-2-13,92.7,76.9,64.4,74.7,67.7,63.7,99,77,40,29.76,29.62,12,3,20,0.00
2013-2-14,81.0,68.0,61.7,76.2,67.1,61.4,99,97,78,29.77,29.62,11,2,18,1.41
2013-2-15,74.8,65.8,62.2,69.2,64.7,62.0,99,96,78,29.79,29.68,5,1,10,0.09
2013-2-16,74.3,62.3,1.2,64.7,55.4,-42.3,99,82,10,29.85,29.63,26,2,26,0.01
2013-2-17,60.4,50.9,42.4,40.4,23.6,6.6,62,38,12,30.09,29.84,10,4,20,0.00
2013-2-18,75.6,59.1,44.8,54.7,40.2,23.8,73,51,32,30.10,29.97,8,2,20,0.00
2013-2-19,86.0,69.4,-21.3,67.5,59.7,-60.3,99,75,10,29.98,29.83,10,2,17,0.19
2013-2-20,86.5,71.2,60.6,68.8,63.6,58.5,99,80,42,29.87,29.75,8,1,11,0.01
2013-2-21,89.1,72.6,59.9,71.9,65.2,59.6,99,80,43,29.85,29.75,8,2,12,0.00
2013-2-22,88.2,75.5,50.9,75.1,68.3,47.8,99,81,54,29.85,29.76,10,4,17,0.00
2013-2-23,92.1,78.1,68.9,73.5,70.2,65.0,99,79,44,29.79,29.65,11,4,17,0.00
2013-2-24,95.2,79.6,70.3,75.9,69.4,60.0,99,76,32,29.75,29.64,8,2,12,0.00
2013-2-25,90.0,76.0,66.6,77.8,70.9,65.0,99,86,47,29.66,29.55,9,2,16,0.34
2013-2-26,91.4,79.0,70.7,75.6,70.9,65.7,99,79,45,29.64,29.53,14,4,25,0.00
2013-2-27,77.0,69.8,62.8,74.3,64.7,59.5,99,85,59,29.71,29.61,7,2,13,0.21
2013-2-28,78.8,63.5,58.5,64.0,54.0,37.6,99,74,24,29.77,29.65,6,1,10,0.00
2013-3-1,68.9,61.4,57.2,57.0,48.8,43.7,83,64,45,29.75,29.65,6,1,11,0.00
2013-3-2,77.4,57.3,49.5,48.5,38.3,29.7,75,51,30,29.80,29.72,12,3,62,0.00
2013-3-3,63.5,53.1,45.3,41.3,37.5,31.1,78,57,34,29.92,29.73,10,2,18,0.00
2013-3-4,74.3,53.3,37.4,42.8,32.3,-1.0,91,51,13,29.99,29.88,97,3,97,0.00
2013-3-5,86.2,64.1,43.5,56.9,50.4,41.6,99,67,26,29.95,29.82,10,2,15,0.00
2013-3-6,79.0,64.8,52.9,64.3,48.0,21.8,99,62,18,29.87,29.70,14,3,21,0.00
2013-3-7,80.1,59.2,46.0,55.1,41.0,32.3,96,54,24,29.95,29.84,9,3,14,0.00
2013-3-8,79.3,62.2,49.1,53.0,47.2,30.3,99,66,17,29.98,29.85,8,1,11,0.00
2013-3-9,79.2,64.3,50.4,55.5,51.9,48.2,97,67,40,29.96,29.87,11,2,16,0.00
2013-3-10,81.9,68.9,56.5,60.0,55.1,51.2,95,65,36,29.92,29.83,9,2,21,0.00
2013-3-11,84.7,71.4,62.8,62.1,58.7,53.1,88,66,36,29.86,29.70,10,3,17,0.00
2013-3-12,86.0,73.4,62.2,68.2,64.5,59.2,97,75,51,29.75,29.65,13,3,20,0.00
2013-3-13,76.1,65.3,52.3,66.3,51.9,36.4,96,66,25,29.88,29.73,8,3,17,0.00
2013-3-14,71.6,60.0,51.4,52.3,43.7,32.3,96,60,26,29.98,29.86,10,3,19,0.00
2013-3-15,77.0,61.5,49.3,53.9,46.9,38.7,88,62,29,30.02,29.90,8,2,13,0.00
2013-3-16,84.4,65.3,48.2,62.5,50.6,42.6,99,66,26,29.97,29.83,10,2,15,0.00
2013-3-17,84.7,67.4,52.7,60.9,56.3,51.6,99,71,38,29.91,29.78,11,2,17,0.00
2013-3-18,86.9,71.5,62.2,70.6,64.8,58.9,99,82,49,29.83,29.70,11,3,19,0.71
2013-3-19,87.4,72.7,63.7,69.7,66.6,62.9,99,84,47,29.76,29.59,14,1,23,0.00
2013-3-20,89.6,73.1,61.2,74.5,63.0,5.3,99,74,42,29.73,29.55,8,1,14,0.05
2013-3-21,81.0,66.9,53.6,62.7,49.0,3.8,99,60,10,29.70,29.58,8,2,12,0.05
2013-3-22,83.1,67.2,50.7,69.8,58.0,30.8,99,76,40,29.77,29.66,101,2,101,0.05
2013-3-23,94.8,80.0,68.9,76.4,68.4,10.7,99,72,10,29.74,29.53,12,3,51,0.00
2013-3-24,93.4,79.5,70.2,75.6,70.8,64.6,99,78,43,29.63,29.41,15,4,29,0.27
2013-3-25,82.9,72.9,61.2,73.2,56.2,29.0,99,63,20,29.74,29.48,8,2,13,0.01
2013-3-26,68.4,60.0,50.9,41.4,32.9,20.3,65,38,17,29.98,29.74,10,4,22,0.00
2013-3-27,74.3,54.9,45.0,46.4,36.6,26.6,81,53,17,30.03,29.94,8,3,14,0.00
2013-3-28,76.5,59.8,45.9,48.1,42.7,31.1,89,58,25,30.05,29.92,8,2,14,0.00
2013-3-29,78.1,62.8,47.3,53.6,47.4,43.1,93,62,32,30.07,29.96,8,2,15,0.00
2013-3-30,84.6,66.3,51.6,67.4,51.5,25.4,99,66,25,30.03,29.91,24,2,24,0.01
2013-3-31,100.8,70.4,36.9,71.2,60.0,-14.6,99,73,10,29.94,29.79,150,4,150,0.00
2013-4-1,91.4,76.8,64.6,74.4,63.9,55.6,99,69,32,29.80,29.68,9,2,17,0.00
2013-4-2,70.5,67.7,66.0,65.5,64.8,63.1,97,91,82,29.78,29.74,2,0,4,0.00
2013-4-3,91.0,76.4,-3.6,73.0,67.0,-46.7,99,75,10,29.82,29.73,103,3,103,0.00
2013-4-4,91.6,75.2,-12.6,73.9,69.7,-16.1,99,85,51,29.80,29.65,29,3,29,0.33
2013-4-5,116.8,68.4,-3.1,99.9,65.1,-8.4,99,92,10,29.74,29.56,97,3,100,0.25
2013-4-6,80.1,69.1,45.3,65.8,60.6,38.2,98,77,49,29.84,29.66,11,3,17,0.00
2013-4-7,86.5,73.8,62.4,65.8,61.5,-33.4,93,67,45,29.89,29.78,12,2,51,0.00
2013-4-8,87.6,73.0,58.5,71.0,61.4,15.6,99,72,10,29.89,29.80,8,1,49,0.33
2013-4-9,88.0,75.4,64.8,71.5,66.3,63.1,99,75,47,29.91,29.80,8,2,14,0.00
2013-4-10,91.8,78.6,68.2,73.7,69.9,66.3,96,76,48,29.86,29.74,10,3,20,0.00
2013-4-11,88.5,80.2,73.9,73.9,72.2,50.4,91,78,58,29.77,29.64,13,6,21,0.00
2013-4-12,77.4,76.7,76.1,74.7,74.3,73.7,94,92,91,29.67,29.64,8,3,17,0.00
2013-4-13,94.8,77.9,71.4,79.8,74.0,71.1,99,89,56,30.37,30.31,11,1,20,0.54
2013-4-14,91.9,84.2,72.0,79.6,73.9,70.4,99,73,53,30.42,29.64,10,4,16,0.54
2013-4-15,99.1,76.2,70.0,77.2,71.4,15.4,99,88,10,29.81,29.67,13,2,20,0.65
2013-4-16,96.1,77.0,68.9,78.3,71.6,30.8,99,85,10,29.88,29.77,8,2,14,0.19
2013-4-17,86.7,77.3,68.5,72.0,67.3,59.5,99,73,43,29.87,29.77,8,2,13,0.00
2013-4-18,92.7,80.0,68.7,77.6,70.6,66.0,99,75,49,29.81,29.72,11,3,17,0.00
2013-4-19,92.1,82.4,75.2,74.7,71.9,35.5,91,73,21,29.79,29.70,103,6,103,0.00
2013-4-20,97.2,79.4,72.0,77.7,72.2,64.7,96,81,38,29.84,29.72,9,3,16,0.00
2013-4-21,92.1,78.4,70.3,75.9,71.7,68.2,99,82,54,29.84,29.73,10,2,17,0.05
2013-4-22,90.7,76.2,70.5,73.1,70.3,66.7,99,84,49,29.80,29.69,11,2,15,0.05
2013-4-23,83.8,74.9,-3.6,70.6,64.7,-3.7,99,73,51,29.85,29.70,11,4,50,0.00
2013-4-24,90.3,76.9,63.3,67.9,62.3,58.8,93,63,40,29.89,29.78,24,2,24,0.00
2013-4-25,87.6,76.4,62.8,69.0,61.7,56.3,98,63,39,29.96,29.83,8,2,13,0.00
2013-4-26,84.9,74.5,62.1,67.7,63.5,60.3,99,71,47,29.98,29.87,10,2,16,0.00
2013-4-27,87.3,77.4,65.1,67.0,63.4,56.6,93,64,39,29.96,29.84,8,2,15,0.00
2013-4-28,88.9,78.5,70.5,64.0,61.2,54.7,77,58,35,29.88,29.74,10,2,17,0.00
2013-4-29,91.6,77.7,65.8,71.9,67.3,16.7,96,73,44,29.78,29.68,11,3,17,0.00
2013-4-30,95.4,75.5,68.9,77.0,70.9,68.6,99,87,45,29.75,29.67,11,1,103,0.61
2013-5-1,92.1,74.9,56.8,77.7,68.4,10.7,99,86,10,29.75,29.67,5,1,49,0.30
2013-5-2,120.2,70.5,-7.2,76.4,69.5,-49.1,99,97,10,29.71,29.54,99,2,99,1.68
2013-5-3,94.8,77.0,67.1,74.3,70.0,65.2,99,82,39,29.58,29.42,11,2,17,0.28
2013-5-4,90.5,76.8,66.4,75.5,68.0,8.5,99,77,10,29.55,29.43,24,1,12,0.01
2013-5-5,86.4,74.0,61.9,69.7,60.8,44.9,99,68,26,29.69,29.50,8,2,14,0.00
2013-5-6,88.5,72.4,55.6,69.0,60.1,51.7,99,68,39,29.76,29.66,8,1,11,0.00
2013-5-7,88.5,73.5,59.0,63.3,58.1,52.0,94,62,32,29.81,29.72,8,1,14,0.00
2013-5-8,92.8,75.9,59.4,68.8,59.2,49.1,99,63,25,29.88,29.78,5,1,11,0.00
2013-5-9,96.3,79.3,63.7,72.8,66.1,58.9,91,68,31,29.89,29.80,100,1,100,0.19
2013-5-10,95.2,81.1,70.2,79.1,71.4,66.1,99,76,41,29.89,29.76,10,2,19,0.00
2013-5-11,94.8,81.0,71.1,79.2,73.0,69.0,99,79,48,29.82,29.72,11,3,17,0.24
2013-5-12,100.6,79.3,69.6,79.3,71.6,65.0,99,81,36,29.81,29.68,11,1,16,0.18
2013-5-13,89.4,78.5,70.3,73.7,68.6,62.6,99,75,43,29.84,29.73,8,2,13,0.01
2013-5-14,83.8,75.1,65.5,67.1,60.0,51.6,90,62,34,29.93,29.82,10,3,15,0.00
2013-5-15,86.9,76.4,63.1,68.2,61.5,56.4,94,62,38,29.94,29.85,10,2,26,0.00
2013-5-16,91.4,77.2,61.5,70.4,62.4,58.1,99,64,36,29.86,29.79,8,2,13,0.00
2013-5-17,86.0,76.8,66.0,74.1,69.7,63.6,99,80,63,29.84,29.76,8,2,14,0.00
2013-5-18,95.2,79.7,69.8,79.6,72.2,68.6,99,79,47,29.86,29.78,8,2,14,0.27
2013-5-19,94.5,81.5,69.4,76.6,70.2,64.5,99,72,44,29.86,29.75,8,2,12,0.00
2013-5-20,83.1,76.0,68.2,77.5,72.7,67.9,99,90,73,29.84,29.74,8,1,14,0.27
2013-5-21,90.7,77.5,68.2,77.5,71.3,67.9,99,83,55,29.80,29.68,11,2,15,0.28
2013-5-22,92.7,78.5,70.7,76.9,72.7,68.7,99,84,52,29.71,29.65,12,1,20,0.05
2013-5-23,96.3,82.4,72.3,79.0,72.7,63.1,99,76,37,29.76,29.65,6,1,13,0.00
2013-5-24,95.2,83.5,73.2,79.5,70.8,58.8,99,70,34,29.83,29.69,8,2,16,0.00
2013-5-25,87.6,80.2,73.9,74.4,68.1,58.4,98,68,48,29.93,29.79,10,3,15,0.01
2013-5-26,89.1,78.9,66.2,68.9,64.1,61.3,88,62,42,29.93,29.86,8,2,15,0.00
2013-5-27,90.7,79.8,68.0,72.4,68.4,61.9,92,69,52,29.92,29.82,10,2,17,0.00
2013-5-28,89.2,79.7,74.3,76.4,73.0,70.7,96,81,57,29.87,29.80,11,3,17,0.04
2013-5-29,84.7,75.2,70.7,78.0,73.3,70.4,99,94,76,29.85,29.77,14,2,21,2.61
2013-5-30,88.0,78.4,72.3,78.9,73.3,68.8,98,85,64,29.83,29.75,17,3,25,0.22
2013-5-31,88.5,77.7,73.0,78.1,74.7,71.9,99,91,65,29.81,29.75,12,2,19,1.04
2013-6-1,90.9,78.6,73.9,81.0,75.7,73.7,99,92,63,29.78,29.71,7,1,12,0.21
2013-6-2,98.8,82.1,71.6,84.7,75.0,71.3,99,82,47,29.75,29.67,8,1,13,0.00
2013-6-3,96.3,80.2,71.6,80.4,74.8,71.3,99,85,51,29.78,29.66,8,1,14,0.37
2013-6-4,90.3,79.2,73.9,80.3,75.7,72.9,99,89,58,29.80,29.70,8,1,14,0.14
2013-6-5,86.9,81.0,76.8,80.0,77.5,75.2,96,89,75,29.77,29.65,4,1,11,0.05
2013-6-6,89.8,78.6,63.9,83.5,76.6,63.0,99,94,71,29.65,29.50,14,3,31,1.89
2013-6-7,95.7,78.3,69.6,80.2,75.0,69.2,99,91,57,29.74,29.58,11,1,16,0.71
2013-6-8,85.8,77.6,71.1,82.9,76.4,70.6,99,96,84,29.88,29.70,8,1,14,1.46
2013-6-9,93.2,82.9,74.3,81.3,75.9,71.1,99,81,55,29.89,29.78,9,2,15,0.09
2013-6-10,95.7,84.9,77.2,79.9,76.4,72.4,96,78,52,29.84,29.75,8,2,13,0.00
2013-6-11,96.8,83.5,72.7,82.1,77.9,71.9,99,84,53,29.85,29.75,13,2,21,0.87
2013-6-12,96.6,80.9,74.7,83.7,76.5,73.6,99,88,53,29.82,29.76,8,1,14,0.09
2013-6-13,95.5,81.7,73.0,81.1,75.6,71.3,99,83,52,29.80,29.68,4,0,10,0.15
2013-6-14,96.3,82.4,72.1,81.7,74.3,69.5,99,79,48,29.72,29.62,11,1,19,0.38
2013-6-15,76.8,76.2,75.7,75.6,74.6,73.5,97,95,91,29.70,29.67,2,0,4,0.00
2013-6-16,98.2,85.8,74.8,83.1,75.6,71.3,99,75,44,29.85,29.77,7,1,11,0.00
2013-6-17,97.2,85.8,75.4,82.3,76.1,73.6,99,75,50,29.83,29.75,8,3,13,0.00
2013-6-18,99.5,86.8,75.2,82.6,75.8,71.5,99,73,44,29.82,29.72,8,2,16,0.00
2013-6-19,97.3,84.5,76.5,81.4,75.9,72.0,99,77,50,29.81,29.73,9,2,14,0.00
2013-6-20,100.8,84.2,74.3,77.1,73.6,69.7,99,74,39,29.84,29.77,8,1,14,0.00
2013-6-21,98.1,85.4,73.6,83.6,74.1,69.3,99,72,43,29.86,29.78,8,2,15,0.00
2013-6-22,97.0,84.9,73.6,80.5,74.0,70.7,99,72,47,29.85,29.79,7,2,15,0.00
2013-6-23,96.4,84.3,76.8,79.4,74.7,71.1,92,74,52,29.88,29.80,9,2,17,0.04
2013-6-24,95.9,86.1,76.8,76.9,73.6,71.0,90,68,46,29.91,29.83,8,2,14,0.00
2013-6-25,97.2,85.3,76.5,77.8,74.8,72.1,94,73,49,29.89,29.78,10,2,16,0.00
2013-6-26,96.8,84.9,76.8,79.0,75.4,71.0,99,75,46,29.83,29.76,10,2,15,0.00
2013-6-27,100.4,81.9,74.3,82.5,76.1,73.4,99,84,44,29.82,29.71,6,1,10,0.25
2013-6-28,96.8,83.5,72.5,84.7,74.7,71.7,99,78,46,29.75,29.59,9,1,14,0.34
2013-6-29,97.7,81.8,73.0,83.0,75.0,71.0,99,83,44,29.67,29.55,10,2,16,0.06
2013-6-30,77.0,77.0,77.0,75.2,75.2,75.2,94,94,94,29.63,29.63,2,2,5,0.06
2013-7-1,77.0,77.0,77.0,75.2,75.2,75.2,94,94,94,29.63,29.63,2,2,5,0.06
2013-7-2,77.0,77.0,77.0,75.2,75.2,75.2,94,94,94,29.63,29.63,2,2,5,0.06
2013-7-3,77.0,77.0,77.0,75.2,75.2,75.2,94,94,94,29.63,29.63,2,2,5,0.06
2013-7-4,77.0,77.0,77.0,75.2,75.2,75.2,94,94,94,29.63,29.63,2,2,5,0.06
2013-7-5,77.0,77.0,77.0,75.2,75.2,75.2,94,94,94,29.63,29.63,2,2,5,0.06
2013-7-6,77.0,77.0,77.0,75.2,75.2,75.2,94,94,94,29.63,29.63,2,2,5,0.06
2013-7-7,77.0,77.0,77.0,75.2,75.2,75.2,94,94,94,29.63,29.63,2,2,5,0.06
2013-7-8,77.0,77.0,77.0,75.2,75.2,75.2,94,94,94,29.63,29.63,2,2,5,0.06
2013-7-9,77.0,77.0,77.0,75.2,75.2,75.2,94,94,94,29.63,29.63,2,2,5,0.06
2013-7-10,77.0,77.0,77.0,75.2,75.2,75.2,94,94,94,29.63,29.63,2,2,5,0.06
2013-7-11,89.2,78.7,73.9,75.2,71.1,61.9,97,79,43,30.14,29.63,7,2,12,0.06
2013-7-12,97.9,82.2,73.8,83.3,74.8,69.5,99,81,46,29.93,29.85,8,1,13,0.02
2013-7-13,96.3,76.7,72.7,82.1,74.5,72.4,99,94,55,29.99,29.88,8,1,14,1.11
2013-7-14,93.6,78.1,71.8,78.6,73.9,71.3,99,89,55,30.06,29.94,8,2,15,0.19
2013-7-15,94.8,80.8,72.5,79.0,74.5,69.0,99,83,51,30.07,29.98,7,1,14,0.05
2013-7-16,88.9,78.5,71.8,77.6,74.1,70.0,99,87,60,30.13,30.02,14,2,20,0.48
2013-7-17,89.4,79.2,74.1,78.4,75.2,72.0,99,88,63,30.10,30.01,7,1,12,0.04
2013-7-18,93.6,79.3,72.3,81.3,74.7,71.9,99,87,57,30.09,30.02,12,2,21,0.43
2013-7-19,72.9,72.9,72.9,72.6,72.6,72.6,99,99,99,30.05,30.05,0,0,2,0.43
2013-7-20,72.9,72.9,72.9,72.6,72.6,72.6,99,99,99,30.05,30.05,0,0,2,0.43
2013-7-21,72.9,72.9,72.9,72.6,72.6,72.6,99,99,99,30.05,30.05,0,0,2,0.43
2013-7-22,72.9,72.9,72.9,72.6,72.6,72.6,99,99,99,30.05,30.05,0,0,2,0.43
2013-7-23,72.9,72.9,72.9,72.6,72.6,72.6,99,99,99,30.05,30.05,0,0,2,0.43
2013-7-24,72.9,72.9,72.9,72.6,72.6,72.6,99,99,99,30.05,30.05,0,0,2,0.43
2013-7-25,72.9,72.9,72.9,72.6,72.6,72.6,99,99,99,30.05,30.05,0,0,2,0.43
2013-7-26,72.9,72.9,72.9,72.6,72.6,72.6,99,99,99,30.05,30.05,0,0,2,0.43
2013-7-27,72.9,72.9,72.9,72.6,72.6,72.6,99,99,99,30.05,30.05,0,0,2,0.43
2013-7-28,93.4,78.5,72.9,82.2,75.4,63.1,99,91,59,30.06,29.90,11,1,15,0.89
2013-7-29,95.7,82.1,73.6,81.3,75.9,73.2,99,83,55,30.05,29.93,7,1,12,0.00
2013-7-30,96.1,84.5,76.1,83.8,77.6,47.1,99,82,53,30.08,29.98,7,1,101,0.46
2013-7-31,95.7,85.5,75.9,83.4,76.5,71.5,99,77,48,30.03,29.91,8,2,15,0.00
2013-8-1,95.9,85.0,74.5,80.5,74.5,28.4,99,73,47,29.97,29.85,8,2,104,0.00
2013-8-2,94.5,81.4,74.8,81.5,74.5,15.4,99,82,10,29.96,29.84,6,1,13,0.01
2013-8-3,89.1,78.5,-13.0,82.2,75.8,-14.7,99,92,77,30.03,29.93,11,1,14,0.01
2013-8-4,103.3,82.7,74.5,83.3,75.7,-36.6,99,84,38,30.02,29.88,14,1,25,0.94
2013-8-5,99.0,83.1,75.4,85.3,76.6,36.6,99,83,43,29.95,29.83,11,1,16,0.00
2013-8-6,102.4,84.0,74.5,80.7,76.5,74.2,99,80,44,29.89,29.80,5,1,10,0.00
2013-8-7,96.6,84.2,75.6,83.3,76.8,73.0,99,80,52,29.89,29.82,10,2,16,0.09
2013-8-8,96.3,85.8,77.4,80.4,76.4,72.9,99,76,50,29.93,29.84,10,2,17,0.00
2013-8-9,94.6,84.3,78.3,80.0,74.9,69.9,91,75,52,29.99,29.86,9,2,19,0.05
2013-8-10,96.4,86.2,76.1,79.6,76.3,73.3,98,75,50,30.03,29.94,10,2,18,0.00
2013-8-11,97.3,86.3,76.6,80.8,76.7,73.5,99,75,49,30.05,29.97,7,1,13,0.00
2013-8-12,96.3,84.4,74.5,79.7,75.8,71.4,99,78,48,30.02,29.93,8,1,12,0.01
2013-8-13,98.2,86.3,75.9,84.4,76.0,71.4,99,74,44,29.97,29.85,8,2,14,0.00
2013-8-14,99.7,85.7,74.1,83.1,75.1,69.2,99,74,40,29.94,29.83,9,2,14,0.00
2013-8-15,97.2,85.5,75.2,79.8,76.3,29.9,99,76,10,29.97,29.86,8,2,14,0.02
2013-8-16,100.6,86.5,76.5,82.7,77.3,73.6,99,76,48,29.97,29.88,8,2,13,0.00
2013-8-17,98.4,87.2,78.6,82.8,78.0,73.4,99,77,47,29.99,29.90,9,2,15,0.00
2013-8-18,97.0,86.3,79.3,81.2,77.4,74.4,96,76,52,29.99,29.90,10,2,18,0.00
2013-8-19,97.3,86.5,78.4,79.6,77.3,74.2,99,76,49,29.99,29.87,102,2,102,0.00
2013-8-20,98.1,85.6,75.6,82.1,76.9,72.0,99,78,45,29.99,29.90,8,2,18,0.07
2013-8-21,95.9,83.4,77.2,82.2,78.8,34.0,99,87,58,29.99,29.91,8,2,16,0.40
2013-8-22,96.6,85.3,46.9,84.0,77.7,33.4,99,80,54,29.98,29.87,49,2,49,0.12
2013-8-23,97.5,84.1,-16.4,86.2,76.4,-17.6,99,80,51,29.93,29.85,24,1,24,0.00
2013-8-24,96.6,83.7,75.7,82.5,76.9,72.8,99,82,50,30.01,29.89,8,1,14,0.05
2013-8-25,95.9,82.5,75.6,79.5,76.0,71.8,99,82,53,30.05,29.94,6,1,14,0.00
2013-8-26,95.7,80.8,72.3,80.2,75.8,72.1,99,87,51,30.04,29.92,9,1,17,0.83
2013-8-27,92.5,79.0,72.3,83.8,74.8,71.7,99,88,55,29.97,29.88,9,1,16,0.06
2013-8-28,92.1,78.6,73.6,82.6,75.5,72.6,99,91,55,29.96,29.86,7,1,9,0.53
2013-8-29,97.2,85.4,72.9,81.3,76.0,72.6,99,76,50,29.94,29.82,7,1,12,0.00
2013-8-30,101.5,86.4,74.8,82.8,75.8,68.1,99,74,38,29.91,29.80,8,2,14,0.00
2013-8-31,101.7,84.4,74.7,79.2,74.9,28.2,99,77,39,29.93,29.81,10,2,18,0.00
2013-9-1,100.4,82.8,72.9,82.9,73.8,13.2,99,79,10,29.91,29.84,8,1,14,0.00
2013-9-2,77.4,75.0,74.1,77.1,74.7,73.9,99,99,99,29.91,29.85,1,0,3,0.00
2013-9-3,89.2,81.6,73.9,79.0,67.2,61.9,99,63,43,30.15,29.92,7,2,13,0.00
2013-9-4,96.1,82.9,76.8,83.5,78.8,76.4,99,88,59,30.04,29.93,4,1,8,0.04
2013-9-5,97.7,85.9,78.1,84.1,78.4,42.8,99,81,24,30.04,29.96,5,1,11,0.00
2013-9-6,98.6,85.9,77.0,86.3,77.8,73.9,99,79,49,30.01,29.89,7,1,11,0.00
2013-9-7,94.8,79.4,73.4,83.0,76.3,73.2,99,91,56,29.95,29.87,9,1,15,0.83
2013-9-8,97.2,80.1,72.7,80.7,75.8,70.5,99,88,48,29.92,29.83,6,1,11,0.40
2013-9-9,94.1,81.6,73.0,83.7,75.5,68.9,99,84,52,29.98,29.87,11,2,17,0.33
2013-9-10,91.8,80.0,73.6,82.4,76.3,72.7,99,89,61,30.02,29.93,11,2,18,0.21
2013-9-11,79.5,77.7,75.7,78.1,77.2,75.5,99,98,94,30.01,29.95,2,0,6,0.00
2013-9-12,93.7,79.5,75.0,82.4,77.1,74.7,99,93,65,29.98,29.86,4,1,7,0.02
2013-9-13,96.6,81.9,73.2,82.0,76.5,72.1,99,86,47,29.88,29.77,3,1,6,0.07
2013-9-14,97.5,84.1,73.8,84.9,76.4,72.3,99,80,46,29.95,29.79,7,1,10,0.01
2013-9-15,92.1,81.3,73.2,84.3,78.5,72.6,99,92,71,30.04,29.89,11,1,16,0.32
2013-9-16,91.8,79.2,74.1,84.0,77.9,73.7,99,96,67,30.02,29.93,7,1,15,0.37
2013-9-17,84.4,76.3,72.3,84.0,76.1,72.1,99,99,96,30.02,29.89,10,1,18,1.10
2013-9-18,92.3,79.5,74.5,85.1,77.2,73.9,99,93,69,29.98,29.89,8,1,13,0.04
2013-9-19,91.2,79.9,72.7,83.5,76.7,72.4,99,91,67,29.98,29.89,9,2,15,0.01
2013-9-20,89.6,80.0,70.3,79.8,72.5,67.4,99,80,51,29.97,29.87,9,2,14,0.00
2013-9-21,96.3,81.4,70.3,81.5,74.1,69.7,99,81,46,29.89,29.74,6,1,13,0.00
2013-9-22,98.4,84.0,72.5,83.7,75.3,71.5,99,78,44,29.83,29.72,8,1,13,0.00
2013-9-23,96.8,82.6,75.2,86.9,78.5,75.0,99,89,59,29.95,29.82,9,1,14,0.11
2013-9-24,96.6,78.2,73.2,86.4,77.1,72.8,99,97,57,29.94,29.84,8,1,16,0.74
2013-9-25,95.2,80.5,71.8,84.9,75.9,71.5,99,87,51,29.87,29.74,8,1,17,0.01
2013-9-26,94.3,81.0,73.8,87.5,79.3,73.3,99,95,68,29.83,29.75,11,1,21,0.94
2013-9-27,91.8,80.7,72.1,81.5,75.3,67.8,99,85,48,29.89,29.78,8,2,12,0.01
2013-9-28,91.8,80.7,73.8,81.2,75.8,73.3,99,86,59,29.94,29.83,8,2,15,0.27
2013-9-29,94.1,79.5,68.7,80.8,73.2,68.3,99,83,53,29.93,29.84,7,1,11,0.01
2013-9-30,95.2,80.9,70.2,84.7,73.1,69.2,99,80,48,29.98,29.87,6,1,11,0.00
2013-10-1,92.8,81.6,72.3,84.0,75.1,71.9,99,82,55,30.01,29.92,8,2,12,0.00
2013-10-2,92.7,82.5,77.0,77.7,75.3,71.9,99,80,56,30.02,29.93,8,2,15,0.00
2013-10-3,92.8,82.3,74.7,79.4,75.4,71.1,99,81,53,30.02,29.91,7,1,11,0.00
2013-10-4,95.0,80.5,72.0,83.6,73.5,69.2,99,82,46,30.03,29.95,6,1,111,0.00
2013-10-5,95.0,79.8,69.6,82.2,73.7,69.4,99,83,51,30.01,29.90,8,1,14,0.00
2013-10-6,95.0,80.0,71.6,83.8,76.0,71.3,99,89,52,29.94,29.84,7,1,11,0.58
2013-10-7,95.0,78.5,71.4,82.5,74.4,71.0,99,89,55,29.87,29.77,10,2,18,1.46
2013-10-8,96.3,82.2,73.6,85.1,75.9,72.4,99,83,52,29.90,29.81,7,1,12,0.00
2013-10-9,86.2,77.4,70.5,82.5,76.3,70.3,99,96,81,29.96,29.87,9,2,13,0.00
2013-10-10,88.5,78.3,69.6,80.0,73.4,69.2,99,87,57,29.98,29.91,8,2,14,0.00
2013-10-11,88.9,76.9,65.7,78.9,69.8,65.4,99,81,51,29.99,29.91,7,1,13,0.00
2013-10-12,91.0,76.8,66.2,78.1,69.4,65.8,99,81,47,30.00,29.91,6,1,12,0.00
2013-10-13,89.6,77.2,69.1,76.5,68.9,62.6,99,79,44,30.02,29.93,8,1,13,0.00
2013-10-14,90.0,77.5,67.6,76.3,70.7,66.4,99,82,48,29.98,29.87,6,1,11,0.00
2013-10-15,93.6,77.9,69.8,79.8,72.3,68.5,99,85,48,29.92,29.83,6,1,10,0.00
2013-10-16,90.7,77.6,67.8,80.9,72.5,67.6,99,86,56,29.92,29.85,5,1,9,0.00
2013-10-17,95.7,80.1,69.1,82.7,73.0,68.8,99,82,50,29.93,29.85,6,1,11,0.00
2013-10-18,95.0,79.8,69.4,82.6,74.2,69.2,99,85,58,29.96,29.86,7,1,14,0.00
2013-10-19,98.6,82.9,70.9,83.1,75.2,70.6,99,81,44,29.93,29.83,8,2,13,0.00
2013-10-20,99.9,82.9,73.0,86.1,77.2,71.3,99,85,43,29.93,29.83,5,1,9,0.00
2013-10-21,97.3,83.2,72.7,88.0,77.6,72.4,99,85,52,29.97,29.86,8,1,13,0.00
2013-10-22,98.6,84.8,74.1,83.7,77.2,72.7,99,81,46,29.93,29.79,8,2,14,0.00
2013-10-23,91.8,79.7,73.0,82.3,75.6,71.8,99,88,59,29.93,29.78,8,2,13,0.00
2013-10-24,82.9,74.6,68.9,73.5,67.1,63.2,99,78,58,30.07,29.91,8,2,14,0.00
2013-10-25,83.8,73.7,65.8,69.1,66.7,61.8,99,81,51,30.13,30.04,9,2,16,0.00
2013-10-26,89.1,73.4,62.1,71.0,64.8,61.5,99,78,44,30.12,30.02,8,1,12,0.00
2013-10-27,86.7,72.8,61.5,69.1,65.2,61.2,99,79,53,30.06,29.99,7,2,12,0.00
2013-10-28,90.9,74.2,62.6,74.0,65.7,60.3,99,79,41,30.11,30.02,7,1,12,0.00
2013-10-29,90.0,75.5,63.9,76.4,67.9,63.6,99,80,51,30.15,30.06,10,2,15,0.02
2013-10-30,90.7,78.3,65.3,77.4,68.4,65.0,99,74,49,30.16,30.05,8,2,14,0.00
2013-10-31,92.5,79.7,68.7,75.9,71.0,65.6,99,77,49,30.09,29.96,8,1,13,0.00
2013-11-1,96.6,80.5,68.7,82.5,73.5,68.3,99,82,46,29.98,29.84,8,2,14,0.00
2013-11-2,96.8,80.0,68.9,82.7,71.3,64.2,99,78,37,29.90,29.77,7,2,12,0.00
2013-11-3,86.9,73.4,67.3,67.3,62.6,58.3,95,70,50,30.00,29.85,14,4,20,0.00
2013-11-4,81.9,74.9,64.2,70.4,63.8,57.1,84,69,59,30.06,29.99,13,4,24,0.01
2013-11-5,87.1,79.0,75.4,73.2,69.5,63.4,90,73,57,30.06,29.99,10,4,18,0.01
2013-11-6,92.8,78.8,67.8,71.4,69.0,65.1,99,74,46,30.04,29.96,8,2,17,0.00
2013-11-7,89.6,76.0,67.6,78.9,71.8,67.4,99,88,55,29.99,29.88,6,1,11,0.00
2013-11-8,85.6,75.2,69.8,77.3,73.2,69.5,99,94,70,30.01,29.90,10,3,21,0.25
2013-11-9,80.8,76.4,73.4,75.5,73.2,70.8,99,90,78,30.09,29.98,11,4,18,0.07
2013-11-10,89.4,78.8,70.5,75.6,71.4,68.1,99,79,57,30.10,30.02,8,2,14,0.00
2013-11-11,90.3,76.5,68.2,75.0,69.4,65.7,99,80,53,30.09,30.01,8,1,13,0.00
2013-11-12,90.0,75.6,65.7,75.0,68.6,65.4,99,81,47,30.05,29.93,5,1,10,0.00
2013-11-13,75.4,71.3,67.8,70.3,63.1,52.2,96,76,57,30.20,29.96,14,5,24,0.00
2013-11-14,78.8,71.3,67.5,59.7,57.0,52.7,68,61,50,30.21,30.11,9,3,16,0.00
2013-11-15,83.7,75.9,70.0,68.8,65.7,59.6,78,71,58,30.12,30.00,8,2,17,0.00
2013-11-16,84.6,75.4,69.1,74.0,70.7,67.0,99,86,65,30.07,29.98,8,1,14,0.20
2013-11-17,92.5,78.8,69.6,76.1,72.4,69.2,99,82,56,30.05,29.96,8,2,15,0.00
2013-11-18,93.2,77.1,68.9,79.8,72.5,68.6,99,87,54,29.99,29.87,7,1,9,0.00
2013-11-19,89.6,76.4,70.5,76.3,73.0,69.7,99,91,57,29.91,29.81,5,1,10,0.05
2013-11-20,91.8,76.0,66.6,79.0,72.1,66.3,99,89,57,30.03,29.89,6,1,9,0.01
2013-11-21,85.5,75.0,71.2,83.0,74.4,71.0,99,98,80,30.11,30.01,7,1,13,1.97
2013-11-22,87.3,77.8,72.5,77.1,72.9,68.6,99,86,60,30.13,30.03,8,2,17,0.00
2013-11-23,89.4,75.0,67.6,75.6,70.6,67.4,99,88,58,30.05,29.95,6,1,11,0.00
2013-11-24,83.1,72.5,65.1,75.6,68.7,64.9,99,89,63,30.13,29.95,11,4,18,0.02
2013-11-25,77.5,72.5,69.8,70.3,67.6,62.2,99,85,66,30.19,30.02,12,3,17,0.00
2013-11-26,87.8,76.9,71.6,77.3,73.8,70.2,99,91,68,30.02,29.78,11,4,18,0.07
2013-11-27,79.3,72.7,70.2,77.8,72.1,69.9,99,98,85,29.85,29.74,9,3,16,0.48
2013-11-28,75.0,61.3,44.8,59.8,53.4,44.5,99,77,48,30.22,30.09,8,3,13,0.00
2013-11-29,79.2,68.7,55.8,65.1,59.8,55.5,99,75,51,30.25,30.16,8,3,18,0.00
2013-11-30,77.7,67.7,59.9,75.3,63.9,11.5,99,89,64,30.19,30.08,10,2,17,0.12
2013-12-1,80.8,67.7,59.2,77.8,67.2,58.7,99,98,82,30.08,29.91,5,1,9,0.12
2013-12-2,72.7,66.3,58.8,69.7,65.2,58.6,99,96,79,29.91,29.78,5,1,10,0.02
2013-12-3,87.4,71.9,57.6,73.9,64.7,57.3,99,81,44,29.97,29.86,5,1,9,0.00
2013-12-4,89.2,72.8,61.7,79.3,66.4,60.6,99,83,49,30.07,29.95,7,1,11,0.00
2013-12-5,90.5,74.2,61.9,81.3,69.1,61.6,99,86,54,30.13,30.04,8,1,14,0.00
2013-12-6,70.5,70.5,70.5,70.3,70.3,70.3,99,99,99,30.11,30.11,0,0,2,0.00
2013-12-7,70.5,70.5,70.5,70.3,70.3,70.3,99,99,99,30.11,30.11,0,0,2,0.00
2013-12-8,70.5,70.5,70.5,70.3,70.3,70.3,99,99,99,30.11,30.11,0,0,2,0.00
2013-12-17,88.0,78.6,69.6,80.1,73.9,69.3,99,87,58,29.77,29.70,7,2,12,0.00
2013-12-18,88.7,77.3,66.0,78.0,70.5,65.7,99,82,52,29.78,29.70,5,1,11,0.00
2013-12-19,90.0,76.9,66.2,78.1,69.2,65.9,99,80,50,29.78,29.71,4,1,8,0.00
2013-12-20,89.6,77.3,69.6,76.5,69.3,63.7,99,80,44,29.82,29.73,6,1,10,0.00
2013-12-21,89.1,77.3,68.0,75.4,69.9,66.0,99,80,49,29.79,29.66,5,1,11,0.00
2013-12-22,92.3,78.0,69.6,79.2,72.1,69.3,99,84,52,29.73,29.63,4,1,7,0.00
2013-12-23,89.6,73.8,68.0,80.8,71.6,67.7,99,94,58,29.93,29.65,4,0,8,3.54
2013-12-24,87.4,71.1,65.5,79.6,66.9,58.8,99,87,65,29.95,29.87,9,2,20,0.00
2013-12-25,77.9,72.1,70.2,67.1,64.5,62.0,90,77,66,29.95,29.87,8,4,17,0.00
2013-12-26,86.5,73.9,67.8,72.0,68.9,65.5,99,85,58,29.94,29.83,6,1,10,0.00
2013-12-27,90.0,74.6,66.2,77.1,69.3,65.9,99,85,57,29.97,29.85,8,2,14,0.02
2013-12-28,84.2,76.4,72.1,74.0,70.0,66.5,97,81,66,29.96,29.78,10,3,17,0.00
2013-12-29,85.8,76.9,72.3,76.1,74.1,71.9,99,92,68,29.79,29.67,11,3,21,0.02
2013-12-30,81.7,71.7,66.2,74.8,69.5,63.8,99,93,71,29.92,29.73,5,1,11,0.00
2013-12-31,79.9,71.7,65.1,68.9,63.4,61.3,93,76,60,30.00,29.87,10,3,17,0.00
2014-1-1,88.2,75.8,68.5,73.4,69.7,63.1,99,82,59,29.97,29.80,9,2,17,0.00
2014-1-2,89.6,76.2,64.9,75.1,67.9,62.8,99,78,46,29.80,29.61,10,3,23,0.01